Time;durP1;ratioP1;P1;durP2;ratioP2;P2;SDS_P1;SDS_P2;PMS_P1;PMS_P2;Temp;Humidity;BMP_temperature;BMP_pressure;BME280_temperature;BME280_humidity;BME280_pressure;Samples;Min_cycle;Max_cycle;Signal;HPM_P1;HPM_P2
2022/04/27 00:02:08;;;;;;;11.63;4.70;;;5.30;99.90;;;;;;5067276;28;20139;-75
2022/04/27 00:04:34;;;;;;;8.07;4.50;;;5.20;99.90;;;;;;5071166;28;20464;-74
2022/04/27 00:07:02;;;;;;;12.13;4.93;;;5.10;99.90;;;;;;5071670;28;20107;-75
2022/04/27 00:09:28;;;;;;;12.63;4.47;;;5.10;99.90;;;;;;5071221;28;20403;-74
2022/04/27 00:12:00;;;;;;;10.35;4.78;;;5.10;99.90;;;;;;5069701;28;20104;-74
2022/04/27 00:14:30;;;;;;;10.35;4.35;;;5.00;99.90;;;;;;5070704;28;20391;-75
2022/04/27 00:16:56;;;;;;;9.32;4.68;;;4.90;99.90;;;;;;5071889;28;20112;-75
2022/04/27 00:19:23;;;;;;;11.20;5.10;;;4.90;99.90;;;;;;5069418;28;20025;-74
2022/04/27 00:21:48;;;;;;;6.70;4.22;;;4.80;99.90;;;;;;5071329;28;20063;-74
2022/04/27 00:24:14;;;;;;;9.73;4.75;;;4.80;99.90;;;;;;5069527;28;20507;-75
2022/04/27 00:26:39;;;;;;;7.38;4.63;;;4.70;99.90;;;;;;5071085;28;20029;-74
2022/04/27 00:29:05;;;;;;;8.63;4.53;;;4.70;99.90;;;;;;5070321;28;20484;-74
2022/04/27 00:31:31;;;;;;;12.95;4.55;;;4.60;99.90;;;;;;5069563;28;20028;-74
2022/04/27 00:33:57;;;;;;;12.80;4.85;;;4.60;99.90;;;;;;5068490;28;20082;-75
2022/04/27 00:36:23;;;;;;;11.70;4.63;;;4.60;99.90;;;;;;5071490;28;20020;-75
2022/04/27 00:38:49;;;;;;;8.05;4.60;;;4.50;99.90;;;;;;5069390;28;20059;-75
2022/04/27 00:41:14;;;;;;;10.15;5.55;;;4.50;99.90;;;;;;5071056;28;20098;-74
2022/04/27 00:43:42;;;;;;;11.82;4.82;;;4.50;99.90;;;;;;5068960;28;20033;-75
2022/04/27 00:46:09;;;;;;;9.95;5.78;;;4.40;99.90;;;;;;5069380;28;20384;-75
2022/04/27 00:48:39;;;;;;;9.30;6.03;;;4.40;99.90;;;;;;5073019;28;20032;-74
2022/04/27 00:51:05;;;;;;;8.32;5.07;;;4.30;99.90;;;;;;5071711;28;20036;-74
2022/04/27 00:53:31;;;;;;;10.02;6.07;;;4.30;99.90;;;;;;5069657;28;20032;-75
2022/04/27 00:55:58;;;;;;;10.82;5.43;;;4.30;99.90;;;;;;5070113;28;20024;-74
2022/04/27 00:58:26;;;;;;;9.20;4.95;;;4.30;99.90;;;;;;5069329;28;20099;-74
2022/04/27 01:00:54;;;;;;;9.70;5.45;;;4.20;99.90;;;;;;5070725;28;20029;-74
2022/04/27 01:03:20;;;;;;;10.20;5.38;;;4.20;99.90;;;;;;5068656;28;20490;-74
2022/04/27 01:05:48;;;;;;;15.20;6.10;;;4.20;99.90;;;;;;5067929;28;20044;-74
2022/04/27 01:08:19;;;;;;;11.35;5.63;;;4.20;99.90;;;;;;5071114;28;20021;-75
2022/04/27 01:10:47;;;;;;;13.20;5.57;;;4.10;99.90;;;;;;5069938;28;20040;-75
2022/04/27 01:13:13;;;;;;;8.93;4.93;;;4.10;99.90;;;;;;5069463;28;20174;-74
2022/04/27 01:15:39;;;;;;;9.10;5.38;;;4.10;99.90;;;;;;5068419;28;20531;-74
2022/04/27 01:18:06;;;;;;;11.85;5.72;;;4.00;99.90;;;;;;5066987;28;20028;-74
2022/04/27 01:20:44;;;;;;;15.93;5.65;;;4.00;99.90;;;;;;5067274;28;20465;-74
2022/04/27 01:23:12;;;;;;;12.10;5.68;;;4.00;99.90;;;;;;5053457;28;20024;-74
2022/04/27 01:25:49;;;;;;;13.27;6.18;;;3.90;99.90;;;;;;5069619;28;20077;-74
2022/04/27 01:28:16;;;;;;;12.95;6.03;;;3.90;99.90;;;;;;5066922;28;20357;-74
2022/04/27 01:30:44;;;;;;;13.95;6.30;;;3.80;99.90;;;;;;5068780;28;20039;-75
2022/04/27 01:33:10;;;;;;;8.60;5.68;;;3.80;99.90;;;;;;5062576;28;20024;-74
2022/04/27 01:35:36;;;;;;;14.93;6.63;;;3.80;99.90;;;;;;5067277;28;20039;-74
2022/04/27 01:38:02;;;;;;;15.05;7.00;;;3.70;99.90;;;;;;5069195;28;20025;-74
2022/04/27 01:40:28;;;;;;;11.27;5.90;;;3.70;99.90;;;;;;5067427;28;20082;-74
2022/04/27 01:42:54;;;;;;;12.23;6.18;;;3.70;99.90;;;;;;5050045;28;20028;-74
2022/04/27 01:45:19;;;;;;;10.27;6.55;;;3.70;99.90;;;;;;5070560;28;20059;-74
2022/04/27 01:47:45;;;;;;;13.13;7.20;;;3.60;99.90;;;;;;5069836;28;20028;-74
2022/04/27 01:50:10;;;;;;;11.25;7.05;;;3.60;99.90;;;;;;5068660;28;20033;-74
2022/04/27 01:55:20;;;;;;;12.35;8.02;;;3.50;99.90;;;;;;5069480;28;20537;-74
2022/04/27 01:57:46;;;;;;;13.73;7.78;;;3.50;99.90;;;;;;5069754;28;20044;-74
2022/04/27 02:00:12;;;;;;;13.98;7.70;;;3.50;99.90;;;;;;5068044;28;20032;-74
2022/04/27 02:02:38;;;;;;;16.90;7.88;;;3.50;99.90;;;;;;5069251;28;20166;-74
2022/04/27 02:05:04;;;;;;;15.60;7.22;;;3.40;99.90;;;;;;5066882;28;20437;-75
2022/04/27 02:07:30;;;;;;;13.95;7.97;;;3.40;99.90;;;;;;5070876;28;20024;-74
2022/04/27 02:09:56;;;;;;;14.45;8.00;;;3.40;99.90;;;;;;5068110;28;20404;-74
2022/04/27 02:12:21;;;;;;;19.08;8.35;;;3.40;99.90;;;;;;5069174;28;20031;-74
2022/04/27 02:14:47;;;;;;;14.73;8.30;;;3.30;99.90;;;;;;5069730;28;20106;-75
2022/04/27 02:17:12;;;;;;;14.55;8.80;;;3.30;99.90;;;;;;5069244;28;20024;-74
2022/04/27 02:19:38;;;;;;;16.75;9.35;;;3.30;99.90;;;;;;5069590;28;20101;-75
2022/04/27 02:22:05;;;;;;;13.95;7.93;;;3.30;99.90;;;;;;5068716;28;20370;-74
2022/04/27 02:24:31;;;;;;;18.17;8.65;;;3.20;99.90;;;;;;5066832;28;20036;-74
2022/04/27 02:26:56;;;;;;;16.45;9.15;;;3.20;99.90;;;;;;5068646;28;20393;-75
2022/04/27 02:29:22;;;;;;;16.50;9.48;;;3.20;99.90;;;;;;5070312;28;20047;-74
2022/04/27 02:31:48;;;;;;;18.00;9.27;;;3.20;99.90;;;;;;5067525;28;20021;-74
2022/04/27 02:34:14;;;;;;;17.20;8.93;;;3.20;99.90;;;;;;5069715;28;20082;-74
2022/04/27 02:36:39;;;;;;;14.60;8.90;;;3.10;99.90;;;;;;5068258;28;20021;-74
2022/04/27 02:39:05;;;;;;;21.30;10.02;;;3.10;99.90;;;;;;5068598;28;20040;-74
2022/04/27 02:41:31;;;;;;;17.70;10.73;;;3.10;99.90;;;;;;5069258;28;20020;-74
2022/04/27 02:43:56;;;;;;;17.30;10.32;;;3.10;99.90;;;;;;5068709;28;20040;-73
2022/04/27 02:46:22;;;;;;;19.33;11.43;;;3.10;99.90;;;;;;5068359;28;20021;-74
2022/04/27 02:51:51;;;;;;;20.75;11.07;;;3.00;99.90;;;;;;5062010;28;20039;-73
2022/04/27 02:54:18;;;;;;;21.02;10.82;;;3.10;99.90;;;;;;5066840;28;20104;-73
2022/04/27 02:56:44;;;;;;;20.05;10.73;;;3.00;99.90;;;;;;5067457;28;20025;-73
2022/04/27 02:59:10;;;;;;;18.35;10.80;;;3.00;99.90;;;;;;5067644;28;20452;-73
2022/04/27 03:01:36;;;;;;;22.60;12.32;;;2.90;99.90;;;;;;5067006;28;20464;-73
2022/04/27 03:04:01;;;;;;;24.65;13.40;;;2.90;99.90;;;;;;5068825;28;20036;-73
2022/04/27 03:06:27;;;;;;;24.58;12.93;;;2.90;99.90;;;;;;5067601;28;20021;-73
2022/04/27 03:08:53;;;;;;;24.00;13.30;;;2.80;99.90;;;;;;5066559;28;20090;-74
2022/04/27 03:11:18;;;;;;;25.45;13.98;;;2.80;99.90;;;;;;5069177;28;20048;-73
2022/04/27 03:13:44;;;;;;;25.58;14.07;;;2.80;99.90;;;;;;5067146;28;20086;-73
2022/04/27 03:16:09;;;;;;;26.30;13.68;;;2.80;99.90;;;;;;5069443;28;20024;-73
2022/04/27 03:18:35;;;;;;;20.38;12.45;;;2.80;99.90;;;;;;5069938;28;20597;-74
2022/04/27 03:21:01;;;;;;;25.15;14.23;;;2.80;99.90;;;;;;5069408;28;20049;-74
2022/04/27 03:23:28;;;;;;;22.83;13.32;;;2.70;99.90;;;;;;5063128;28;20507;-74
2022/04/27 03:25:53;;;;;;;25.60;12.23;;;2.70;99.90;;;;;;5066901;28;20063;-74
2022/04/27 03:28:19;;;;;;;24.63;14.48;;;2.70;99.90;;;;;;5069664;28;20506;-74
2022/04/27 03:30:45;;;;;;;22.23;14.05;;;2.70;99.90;;;;;;5068950;28;20033;-74
2022/04/27 03:33:10;;;;;;;26.17;15.18;;;2.70;99.90;;;;;;5070825;28;20151;-74
2022/04/27 03:35:36;;;;;;;23.63;14.30;;;2.60;99.90;;;;;;5051210;28;20039;-74
2022/04/27 03:38:03;;;;;;;25.85;14.63;;;2.60;99.90;;;;;;5053553;28;20028;-74
2022/04/27 03:40:28;;;;;;;21.98;13.27;;;2.60;99.90;;;;;;5069777;28;20035;-74
2022/04/27 03:42:54;;;;;;;21.83;13.63;;;2.60;99.90;;;;;;5070147;28;20391;-74
2022/04/27 03:45:20;;;;;;;22.67;14.20;;;2.50;99.90;;;;;;5049961;28;20044;-74
2022/04/27 03:47:47;;;;;;;23.20;13.73;;;2.50;99.90;;;;;;5071322;28;20445;-74
2022/04/27 03:50:13;;;;;;;21.00;12.32;;;2.50;99.90;;;;;;5069495;28;20042;-74
2022/04/27 03:52:38;;;;;;;29.60;13.57;;;2.50;99.90;;;;;;5069110;28;20012;-75
2022/04/27 03:55:04;;;;;;;20.42;13.68;;;2.50;99.90;;;;;;5071585;28;20024;-74
2022/04/27 03:57:30;;;;;;;20.05;13.13;;;2.50;99.90;;;;;;5073140;28;20035;-74
2022/04/27 03:59:56;;;;;;;25.33;13.70;;;2.50;99.90;;;;;;5071469;28;20102;-74
2022/04/27 04:02:21;;;;;;;25.00;13.93;;;2.50;99.90;;;;;;5072933;28;20469;-74
2022/04/27 04:04:47;;;;;;;21.60;12.93;;;2.40;99.90;;;;;;5071683;28;20089;-74
2022/04/27 04:07:13;;;;;;;26.55;14.13;;;2.40;99.90;;;;;;5072063;28;20052;-74
2022/04/27 04:09:39;;;;;;;29.27;14.55;;;2.40;99.90;;;;;;5072452;28;20390;-74
2022/04/27 04:12:06;;;;;;;25.90;14.20;;;2.40;99.90;;;;;;5068830;28;20108;-74
2022/04/27 04:14:31;;;;;;;24.13;13.48;;;2.40;99.90;;;;;;5071147;28;20107;-74
2022/04/27 04:17:00;;;;;;;21.52;13.95;;;2.40;99.90;;;;;;5070436;28;20112;-74
2022/04/27 04:19:25;;;;;;;18.48;11.52;;;2.30;99.90;;;;;;5052891;28;20083;-74
2022/04/27 04:21:51;;;;;;;24.20;13.95;;;2.30;99.90;;;;;;5066255;28;20036;-74
2022/04/27 04:24:17;;;;;;;22.10;14.00;;;2.30;99.90;;;;;;5071839;28;20377;-74
2022/04/27 04:29:27;;;;;;;21.92;13.77;;;2.30;99.90;;;;;;5064401;28;20036;-74
2022/04/27 04:31:53;;;;;;;22.05;13.38;;;2.20;99.90;;;;;;5070808;28;20480;-75
2022/04/27 04:34:18;;;;;;;21.92;13.57;;;2.30;99.90;;;;;;5072694;28;20115;-74
2022/04/27 04:36:44;;;;;;;24.90;15.48;;;2.30;99.90;;;;;;5070281;28;20029;-74
2022/04/27 04:39:09;;;;;;;29.00;16.10;;;2.30;99.90;;;;;;5072268;28;20025;-74
2022/04/27 04:41:35;;;;;;;27.85;15.55;;;2.30;99.90;;;;;;5066950;28;20048;-74
2022/04/27 04:44:00;;;;;;;25.20;15.32;;;2.30;99.90;;;;;;5067573;28;20048;-74
2022/04/27 04:46:26;;;;;;;25.38;15.65;;;2.30;99.90;;;;;;5071482;28;20032;-74
2022/04/27 04:48:52;;;;;;;30.83;16.63;;;2.40;99.90;;;;;;5061553;28;20111;-74
2022/04/27 04:51:17;;;;;;;26.95;15.77;;;2.40;99.90;;;;;;5069662;28;20414;-73
2022/04/27 04:53:43;;;;;;;23.98;14.13;;;2.40;99.90;;;;;;5053626;28;20028;-74
2022/04/27 04:56:08;;;;;;;21.98;13.52;;;2.40;99.90;;;;;;5069746;28;20024;-73
2022/04/27 04:58:34;;;;;;;27.02;15.32;;;2.40;99.90;;;;;;5068993;28;20024;-75
2022/04/27 05:01:01;;;;;;;22.77;14.88;;;2.50;99.90;;;;;;5068554;28;20476;-75
2022/04/27 05:03:27;;;;;;;25.27;15.57;;;2.50;99.90;;;;;;5071389;28;20139;-74
2022/04/27 05:05:52;;;;;;;31.95;15.80;;;2.60;99.90;;;;;;5064747;28;20150;-75
2022/04/27 05:08:18;;;;;;;27.65;16.40;;;2.60;99.90;;;;;;5065678;28;20396;-74
2022/04/27 05:10:44;;;;;;;23.98;16.27;;;2.60;99.90;;;;;;5066774;28;20040;-75
2022/04/27 05:13:09;;;;;;;25.90;16.30;;;2.70;99.90;;;;;;5070820;28;20033;-75
2022/04/27 05:15:35;;;;;;;25.92;15.40;;;2.80;99.90;;;;;;5072209;28;20473;-75
2022/04/27 05:18:01;;;;;;;36.97;17.20;;;2.80;99.90;;;;;;5064467;28;20392;-75
2022/04/27 05:20:26;;;;;;;29.73;17.45;;;2.90;99.90;;;;;;5070583;28;20393;-75
2022/04/27 05:22:52;;;;;;;30.65;18.02;;;2.90;99.90;;;;;;5071360;28;20495;-75
2022/04/27 05:25:18;;;;;;;33.08;18.10;;;3.00;99.90;;;;;;5067577;28;20042;-75
2022/04/27 05:27:44;;;;;;;24.83;16.40;;;3.10;99.90;;;;;;5068710;28;20033;-75
2022/04/27 05:32:55;;;;;;;29.15;17.13;;;3.20;99.90;;;;;;5065073;28;20059;-75
2022/04/27 05:35:20;;;;;;;34.92;17.55;;;3.30;99.90;;;;;;5072254;28;20033;-75
2022/04/27 05:37:46;;;;;;;30.15;17.98;;;3.40;99.90;;;;;;5062946;28;20034;-75
2022/04/27 05:40:12;;;;;;;33.75;17.83;;;3.50;99.90;;;;;;5069904;28;20056;-75
2022/04/27 05:42:40;;;;;;;29.70;17.92;;;3.60;99.90;;;;;;5068064;28;20024;-75
2022/04/27 05:45:10;;;;;;;26.83;17.02;;;3.60;99.90;;;;;;5069047;28;20048;-75
2022/04/27 05:47:38;;;;;;;33.17;19.15;;;3.80;99.90;;;;;;5066387;28;20503;-74
2022/04/27 05:50:04;;;;;;;31.95;20.20;;;3.90;99.90;;;;;;5070423;28;20029;-75
2022/04/27 05:52:31;;;;;;;26.13;17.63;;;4.10;99.90;;;;;;5060015;28;20090;-74
2022/04/27 05:54:57;;;;;;;35.78;19.42;;;4.20;99.90;;;;;;5062473;28;20016;-75
2022/04/27 05:57:25;;;;;;;32.08;18.98;;;4.40;99.90;;;;;;5062032;28;20384;-75
2022/04/27 05:59:50;;;;;;;34.47;19.80;;;4.60;99.90;;;;;;5062945;28;20454;-75
2022/04/27 06:02:16;;;;;;;33.60;21.15;;;4.80;99.90;;;;;;5071320;28;20032;-77
2022/04/27 06:04:42;;;;;;;29.80;19.65;;;4.90;99.90;;;;;;5068566;28;20481;-77
2022/04/27 06:07:08;;;;;;;33.03;19.00;;;5.10;99.90;;;;;;5070540;28;20035;-77
2022/04/27 06:09:34;;;;;;;31.55;19.58;;;5.30;99.90;;;;;;5070603;28;20028;-76
2022/04/27 06:12:00;;;;;;;26.02;17.88;;;5.40;99.90;;;;;;5068611;28;20472;-76
2022/04/27 06:14:26;;;;;;;32.70;19.25;;;5.60;99.90;;;;;;5071123;28;20056;-77
2022/04/27 06:16:51;;;;;;;30.77;18.60;;;5.70;99.90;;;;;;5064649;28;20499;-76
2022/04/27 06:19:17;;;;;;;27.48;17.95;;;5.90;99.90;;;;;;5067040;28;20384;-75
2022/04/27 06:21:43;;;;;;;27.52;17.00;;;6.00;99.90;;;;;;5066490;28;20028;-76
2022/04/27 06:24:08;;;;;;;26.30;17.08;;;6.20;99.90;;;;;;5060090;28;20064;-75
2022/04/27 06:26:36;;;;;;;22.88;14.95;;;6.30;99.90;;;;;;5058504;28;20036;-75
2022/04/27 06:29:02;;;;;;;22.05;13.15;;;6.50;99.90;;;;;;5069392;28;20430;-76
2022/04/27 06:31:27;;;;;;;22.15;13.52;;;6.60;99.90;;;;;;5068372;28;20032;-75
2022/04/27 06:33:53;;;;;;;22.13;12.93;;;6.70;99.90;;;;;;5067773;28;20020;-76
2022/04/27 06:36:18;;;;;;;22.17;12.13;;;6.90;99.90;;;;;;5070149;28;20077;-75
2022/04/27 06:38:44;;;;;;;19.73;11.07;;;7.00;99.90;;;;;;5070358;28;20051;-75
2022/04/27 06:41:09;;;;;;;18.70;11.00;;;7.20;99.90;;;;;;5071168;28;20035;-75
2022/04/27 06:43:35;;;;;;;18.25;12.27;;;7.30;99.90;;;;;;5070209;28;20651;-75
2022/04/27 06:46:03;;;;;;;17.52;10.95;;;7.40;99.90;;;;;;5057354;28;20024;-75
2022/04/27 06:48:30;;;;;;;20.13;11.40;;;7.50;99.90;;;;;;5069500;28;20029;-75
2022/04/27 06:50:55;;;;;;;18.63;11.38;;;7.60;99.90;;;;;;5064179;28;20826;-75
2022/04/27 06:53:21;;;;;;;16.30;11.13;;;7.70;99.90;;;;;;5064356;28;20044;-75
2022/04/27 06:55:48;;;;;;;19.58;11.35;;;7.70;99.90;;;;;;5044940;28;20036;-75
2022/04/27 06:58:14;;;;;;;21.08;11.32;;;7.80;99.90;;;;;;5063390;28;20024;-75
2022/04/27 07:00:39;;;;;;;16.23;11.02;;;7.90;99.90;;;;;;5059104;28;20036;-74
2022/04/27 07:03:07;;;;;;;22.00;11.50;;;8.00;99.90;;;;;;5064674;28;20024;-74
2022/04/27 07:05:33;;;;;;;17.30;10.95;;;8.20;99.90;;;;;;5057349;28;20044;-74
2022/04/27 07:07:59;;;;;;;22.45;11.45;;;8.20;99.90;;;;;;5068024;28;20028;-75
2022/04/27 07:10:24;;;;;;;21.88;12.27;;;8.40;99.90;;;;;;5062912;28;20036;-75
2022/04/27 07:12:50;;;;;;;15.93;9.90;;;8.50;99.90;;;;;;5069870;28;20023;-76
2022/04/27 07:15:16;;;;;;;15.18;8.95;;;8.70;99.90;;;;;;5067815;28;20032;-75
2022/04/27 07:17:42;;;;;;;14.20;7.95;;;8.80;99.90;;;;;;5068406;28;20490;-76
2022/04/27 07:20:08;;;;;;;16.10;8.40;;;9.00;99.90;;;;;;5068183;28;20040;-75
2022/04/27 07:22:34;;;;;;;15.32;7.82;;;9.10;99.90;;;;;;5058229;28;20299;-75
2022/04/27 07:25:00;;;;;;;11.63;8.18;;;9.20;99.90;;;;;;5070588;28;20040;-75
2022/04/27 07:27:27;;;;;;;10.68;8.07;;;9.30;99.90;;;;;;5070620;28;20472;-75
2022/04/27 07:29:53;;;;;;;14.93;8.23;;;9.30;99.90;;;;;;5066008;28;20024;-76
2022/04/27 07:32:19;;;;;;;16.42;8.45;;;9.40;99.90;;;;;;5073020;28;20041;-75
2022/04/27 07:34:44;;;;;;;13.38;7.45;;;9.50;99.90;;;;;;5070006;28;20047;-76
2022/04/27 07:37:10;;;;;;;11.23;7.45;;;9.60;99.90;;;;;;5068985;28;20480;-76
2022/04/27 07:39:36;;;;;;;12.05;7.82;;;9.60;99.90;;;;;;5068495;28;20036;-76
2022/04/27 07:42:03;;;;;;;15.18;7.88;;;9.70;99.90;;;;;;5064242;28;20067;-76
2022/04/27 07:44:28;;;;;;;10.35;5.35;;;9.80;99.90;;;;;;5071914;28;20454;-75
2022/04/27 07:46:54;;;;;;;13.35;3.95;;;9.80;99.90;;;;;;5067630;28;20029;-76
2022/04/27 07:49:20;;;;;;;10.73;5.07;;;9.90;99.90;;;;;;5072892;28;20391;-76
2022/04/27 07:51:47;;;;;;;11.23;4.70;;;10.00;99.90;;;;;;5073595;28;20031;-76
2022/04/27 07:54:12;;;;;;;9.85;5.05;;;10.20;99.90;;;;;;5072196;28;20099;-76
2022/04/27 07:56:38;;;;;;;8.82;5.22;;;10.30;99.90;;;;;;5070299;28;20043;-76
2022/04/27 07:59:04;;;;;;;10.10;4.85;;;10.40;99.90;;;;;;5072127;28;20056;-76
2022/04/27 08:01:30;;;;;;;9.50;5.55;;;10.50;99.90;;;;;;5068476;28;20523;-76
2022/04/27 08:03:56;;;;;;;8.82;5.60;;;10.60;99.90;;;;;;5069337;28;20044;-76
2022/04/27 08:06:22;;;;;;;9.80;5.90;;;10.70;99.90;;;;;;5071014;28;20028;-76
2022/04/27 08:08:47;;;;;;;15.32;5.63;;;10.70;99.90;;;;;;5056728;28;20032;-76
2022/04/27 08:11:13;;;;;;;10.70;4.32;;;10.70;99.90;;;;;;5072767;28;20028;-76
2022/04/27 08:13:39;;;;;;;6.18;3.05;;;10.80;99.90;;;;;;5072525;28;20025;-76
2022/04/27 08:16:07;;;;;;;7.38;4.05;;;10.90;99.90;;;;;;5048898;28;20036;-76
2022/04/27 08:18:34;;;;;;;10.13;4.78;;;11.00;99.90;;;;;;5072101;28;20211;-76
2022/04/27 08:21:15;;;;;;;8.77;4.00;;;11.20;99.90;;;;;;5069081;28;20139;-76
2022/04/27 08:23:48;;;;;;;5.30;2.80;;;11.30;99.90;;;;;;5072179;28;20039;-76
2022/04/27 08:26:14;;;;;;;5.68;2.70;;;11.50;99.90;;;;;;5069223;28;20063;-76
2022/04/27 08:28:41;;;;;;;9.27;3.17;;;11.60;99.90;;;;;;5072287;28;20056;-76
2022/04/27 08:31:09;;;;;;;10.02;3.22;;;11.80;99.90;;;;;;5071417;28;20033;-76
2022/04/27 08:33:35;;;;;;;7.22;1.40;;;11.90;99.90;;;;;;5073443;28;20115;-77
2022/04/27 08:36:03;;;;;;;5.10;0.80;;;12.00;99.50;;;;;;5070260;28;20036;-77
2022/04/27 08:38:28;;;;;;;3.35;0.95;;;12.00;97.30;;;;;;5072457;28;20032;-76
2022/04/27 08:40:55;;;;;;;4.72;1.30;;;12.00;97.00;;;;;;5070080;28;20062;-76
2022/04/27 08:43:21;;;;;;;3.30;0.93;;;12.00;96.20;;;;;;5070771;28;20067;-77
2022/04/27 08:45:47;;;;;;;2.92;0.90;;;11.90;94.20;;;;;;5070091;28;20107;-76
2022/04/27 08:48:16;;;;;;;3.28;0.80;;;11.90;93.10;;;;;;5062260;28;20111;-76
2022/04/27 08:50:41;;;;;;;5.07;0.90;;;11.80;92.90;;;;;;5069765;28;20038;-77
2022/04/27 08:53:09;;;;;;;6.07;1.00;;;11.90;92.00;;;;;;5071266;28;20017;-77
2022/04/27 08:55:40;;;;;;;2.17;0.75;;;11.90;91.80;;;;;;5065635;28;20038;-76
2022/04/27 08:58:23;;;;;;;3.60;1.08;;;11.90;91.80;;;;;;5070753;28;20023;-77
2022/04/27 09:00:49;;;;;;;4.78;1.27;;;12.00;91.20;;;;;;5067737;28;20029;-77
2022/04/27 09:03:30;;;;;;;4.10;1.00;;;12.00;90.30;;;;;;5072247;28;20031;-77
2022/04/27 09:06:04;;;;;;;4.27;0.90;;;12.10;90.50;;;;;;5065402;28;20181;-77
2022/04/27 09:08:41;;;;;;;3.90;1.00;;;12.20;90.90;;;;;;5067925;28;20349;-77
2022/04/27 09:11:12;;;;;;;3.22;0.95;;;12.30;90.50;;;;;;5070274;28;20028;-76
2022/04/27 09:13:38;;;;;;;2.53;0.80;;;12.50;89.90;;;;;;5066180;28;20155;-77
2022/04/27 09:16:08;;;;;;;3.15;0.95;;;12.50;90.20;;;;;;5067536;28;20108;-77
2022/04/27 09:21:58;;;;;;;3.58;0.70;;;12.70;88.50;;;;;;5066299;28;20063;-77
2022/04/27 09:24:27;;;;;;;5.00;1.17;;;12.70;88.40;;;;;;5068240;28;20093;-77
2022/04/27 09:27:02;;;;;;;4.22;1.10;;;12.70;86.50;;;;;;5071662;28;20025;-77
2022/04/27 09:29:28;;;;;;;5.93;1.10;;;12.90;86.90;;;;;;5054870;28;20381;-77
2022/04/27 09:32:00;;;;;;;3.40;1.17;;;13.10;87.00;;;;;;5071364;28;20046;-76
2022/04/27 09:34:29;;;;;;;5.07;1.05;;;13.20;85.00;;;;;;5072263;28;20016;-77
2022/04/27 09:37:02;;;;;;;3.33;1.20;;;13.30;84.70;;;;;;5071435;28;20086;-77
2022/04/27 09:39:28;;;;;;;4.20;1.10;;;13.50;84.70;;;;;;5071606;28;20039;-77
2022/04/27 09:42:03;;;;;;;3.58;1.30;;;13.70;84.40;;;;;;5069940;28;20020;-77
2022/04/27 09:44:34;;;;;;;5.68;1.20;;;13.90;83.10;;;;;;5071870;28;20111;-77
2022/04/27 09:47:03;;;;;;;4.45;1.42;;;14.10;82.60;;;;;;5071436;28;20017;-77
2022/04/27 09:49:36;;;;;;;6.22;2.00;;;14.30;81.40;;;;;;5071872;28;20032;-77
2022/04/27 09:52:04;;;;;;;5.05;1.60;;;14.30;81.70;;;;;;5058815;28;20468;-77
2022/04/27 09:54:31;;;;;;;3.85;1.55;;;14.20;79.70;;;;;;5071390;28;20032;-77
2022/04/27 09:56:58;;;;;;;7.35;2.10;;;14.20;78.70;;;;;;5058203;28;20472;-77
2022/04/27 09:59:27;;;;;;;7.70;1.58;;;14.10;77.70;;;;;;5071907;28;20039;-77
2022/04/27 10:01:55;;;;;;;5.28;1.92;;;13.90;77.70;;;;;;5071136;28;20464;-77
2022/04/27 10:04:25;;;;;;;5.07;1.73;;;13.60;78.50;;;;;;5071752;28;20110;-77
2022/04/27 10:06:52;;;;;;;39.25;4.78;;;13.40;78.90;;;;;;5068124;28;20029;-77
2022/04/27 10:09:17;;;;;;;9.25;1.60;;;13.30;79.30;;;;;;5068745;28;20033;-77
2022/04/27 10:11:44;;;;;;;7.68;2.20;;;13.20;79.30;;;;;;5070666;28;20074;-77
2022/04/27 10:14:11;;;;;;;3.83;1.58;;;13.10;79.70;;;;;;5071691;28;20032;-77
2022/04/27 10:16:37;;;;;;;4.18;1.90;;;13.10;80.00;;;;;;5071517;28;20012;-77
2022/04/27 10:19:07;;;;;;;5.78;2.25;;;13.20;79.80;;;;;;5070965;28;20050;-77
2022/04/27 10:21:56;;;;;;;5.10;2.08;;;13.20;80.00;;;;;;5053510;28;20107;-77
2022/04/27 10:24:34;;;;;;;5.35;1.80;;;13.30;80.10;;;;;;5068210;28;20071;-77
2022/04/27 10:27:34;;;;;;;5.32;2.10;;;13.60;80.80;;;;;;5071009;28;20432;-77
2022/04/27 10:30:09;;;;;;;8.15;2.55;;;14.00;79.70;;;;;;5065840;28;20566;-77
2022/04/27 10:32:35;;;;;;;6.38;2.50;;;14.20;78.60;;;;;;5071147;28;20017;-77
2022/04/27 10:35:21;;;;;;;6.90;2.83;;;14.30;78.00;;;;;;5070203;28;20596;-77
2022/04/27 10:37:49;;;;;;;5.82;2.92;;;14.70;76.80;;;;;;5071014;28;20020;-77
2022/04/27 10:40:34;;;;;;;3.15;2.13;;;14.90;76.20;;;;;;5071106;28;20018;-77
2022/04/27 10:43:41;;;;;;;7.72;1.88;;;15.20;74.40;;;;;;5070871;28;20025;-77
2022/04/27 10:46:38;;;;;;;12.25;3.22;;;15.40;74.60;;;;;;5071367;28;20419;-77
2022/04/27 10:49:24;;;;;;;6.45;2.65;;;15.50;74.50;;;;;;5070855;28;20017;-77
2022/04/27 10:52:04;;;;;;;4.88;1.67;;;15.50;73.40;;;;;;5072446;28;20031;-77
2022/04/27 10:54:32;;;;;;;4.95;1.63;;;15.20;72.70;;;;;;5075484;28;20036;-77
2022/04/27 10:57:19;;;;;;;7.82;1.95;;;14.90;73.00;;;;;;5074802;28;20021;-77
2022/04/27 11:00:01;;;;;;;7.32;2.28;;;14.70;72.00;;;;;;5074462;28;20025;-77
2022/04/27 11:02:33;;;;;;;4.93;2.15;;;14.40;72.30;;;;;;5074613;28;20073;-77
2022/04/27 11:04:59;;;;;;;5.30;2.60;;;14.20;73.30;;;;;;5074956;28;20421;-77
2022/04/27 11:07:52;;;;;;;5.53;2.28;;;14.10;73.40;;;;;;5075167;28;20032;-77
2022/04/27 11:10:21;;;;;;;5.95;2.58;;;14.20;73.50;;;;;;5072711;28;20021;-77
2022/04/27 11:12:55;;;;;;;4.97;2.53;;;14.20;73.10;;;;;;5074396;28;20480;-77
2022/04/27 11:15:23;;;;;;;7.13;2.80;;;14.30;72.90;;;;;;5074890;28;20387;-77
2022/04/27 11:18:00;;;;;;;9.05;2.95;;;14.40;72.40;;;;;;5073850;28;20024;-77
2022/04/27 11:20:31;;;;;;;6.07;2.88;;;14.50;72.30;;;;;;5074935;28;20052;-77
2022/04/27 11:22:58;;;;;;;5.28;3.03;;;14.80;72.10;;;;;;5074211;28;20024;-77
2022/04/27 11:25:33;;;;;;;5.93;2.90;;;15.10;71.70;;;;;;5074566;28;20040;-77
2022/04/27 11:28:00;;;;;;;6.30;2.97;;;15.30;70.50;;;;;;5074453;28;20031;-77
2022/04/27 11:30:28;;;;;;;4.53;2.83;;;15.40;70.20;;;;;;5075019;28;20040;-77
2022/04/27 11:32:54;;;;;;;5.95;2.35;;;15.50;70.00;;;;;;5073681;28;20081;-76
2022/04/27 11:35:23;;;;;;;5.20;2.22;;;15.60;70.70;;;;;;5074591;28;20032;-77
2022/04/27 11:37:53;;;;;;;7.20;2.60;;;15.70;69.70;;;;;;5073976;28;20021;-77
2022/04/27 11:40:27;;;;;;;4.22;2.15;;;15.50;69.60;;;;;;5057239;28;20500;-77
2022/04/27 11:42:53;;;;;;;7.20;3.10;;;15.40;70.10;;;;;;5073355;28;20064;-77
2022/04/27 11:45:21;;;;;;;5.40;2.35;;;15.40;69.60;;;;;;5074277;28;20028;-77
2022/04/27 11:48:04;;;;;;;4.13;2.70;;;15.20;69.50;;;;;;5072517;28;20116;-77
2022/04/27 11:50:31;;;;;;;4.82;3.03;;;15.10;69.00;;;;;;5074472;28;20434;-77
2022/04/27 11:53:06;;;;;;;5.65;2.90;;;15.10;68.90;;;;;;5073968;28;20428;-77
2022/04/27 11:55:34;;;;;;;10.13;3.38;;;15.20;67.50;;;;;;5074388;28;20025;-77
2022/04/27 11:58:00;;;;;;;5.18;2.83;;;15.00;67.40;;;;;;5073831;28;20438;-77
2022/04/27 12:00:27;;;;;;;7.95;2.85;;;15.10;68.20;;;;;;5072918;28;20028;-77
2022/04/27 12:02:56;;;;;;;4.68;3.08;;;15.30;68.60;;;;;;5073167;28;20020;-77
2022/04/27 12:05:36;;;;;;;5.10;3.35;;;15.30;67.90;;;;;;5073798;28;20556;-78
2022/04/27 12:08:06;;;;;;;9.32;3.17;;;15.40;67.90;;;;;;5072797;28;20048;-77
2022/04/27 12:10:41;;;;;;;9.25;3.35;;;15.30;68.10;;;;;;5074194;28;20108;-77
2022/04/27 12:13:11;;;;;;;7.60;3.30;;;15.30;68.20;;;;;;5073773;28;20031;-75
2022/04/27 12:15:40;;;;;;;7.80;3.63;;;15.20;68.50;;;;;;5064545;28;20036;-75
2022/04/27 12:18:06;;;;;;;9.30;3.17;;;15.30;68.20;;;;;;5065728;28;20028;-77
2022/04/27 12:20:37;;;;;;;6.43;3.55;;;15.40;68.40;;;;;;5073520;28;20484;-77
2022/04/27 12:23:35;;;;;;;4.93;3.13;;;15.60;69.50;;;;;;5073926;28;20040;-77
2022/04/27 12:26:01;;;;;;;7.20;3.03;;;16.00;68.30;;;;;;5064483;28;20067;-77
2022/04/27 12:28:40;;;;;;;7.55;3.78;;;16.20;67.70;;;;;;5074018;28;20032;-77
2022/04/27 12:31:08;;;;;;;6.55;2.88;;;16.40;66.90;;;;;;5071840;28;20502;-77
2022/04/27 12:33:43;;;;;;;5.20;2.83;;;16.50;66.20;;;;;;5073244;28;20540;-77
2022/04/27 12:39:02;;;;;;;7.00;3.10;;;16.70;64.50;;;;;;5073097;28;20078;-77
2022/04/27 12:41:37;;;;;;;4.40;2.47;;;16.70;64.00;;;;;;5073227;28;20027;-77
2022/04/27 12:44:07;;;;;;;5.40;2.83;;;16.80;63.60;;;;;;5072286;28;20499;-77
2022/04/27 12:46:33;;;;;;;5.20;2.47;;;16.90;63.50;;;;;;5072249;28;20037;-77
2022/04/27 12:49:01;;;;;;;6.30;2.53;;;17.00;63.30;;;;;;5072899;28;20435;-77
2022/04/27 12:51:35;;;;;;;4.90;2.15;;;17.00;62.80;;;;;;5073228;28;20032;-77
2022/04/27 12:54:06;;;;;;;6.45;2.83;;;17.00;62.50;;;;;;5072985;28;20095;-77
2022/04/27 12:56:36;;;;;;;4.78;2.63;;;16.90;63.10;;;;;;5072920;28;20070;-77
2022/04/27 12:59:12;;;;;;;6.93;2.60;;;16.80;62.40;;;;;;5071636;28;20093;-77
2022/04/27 13:01:38;;;;;;;5.10;2.67;;;16.60;62.80;;;;;;5073247;28;20050;-77
2022/04/27 13:04:05;;;;;;;4.38;2.42;;;16.70;62.60;;;;;;5073024;28;20040;-77
2022/04/27 13:06:30;;;;;;;5.00;3.00;;;16.80;61.80;;;;;;5054986;28;20373;-77